Time;durP1;ratioP1;P1;durP2;ratioP2;P2;SDS_P1;SDS_P2;PMS_P1;PMS_P2;Temp;Humidity;BMP_temperature;BMP_pressure;BME280_temperature;BME280_humidity;BME280_pressure;Samples;Min_cycle;Max_cycle;Signal;HPM_P1;HPM_P2
2021/05/16 00:00:49;;;;;;;5.00;1.80;;;;;;;1.88;68.51;94185.63;4972166;28;20297;-67
2021/05/16 00:03:14;;;;;;;4.03;1.50;;;;;;;2.46;67.45;94170.72;4972451;28;20153;-63
2021/05/16 00:05:40;;;;;;;3.67;1.40;;;;;;;3.35;64.92;94174.94;4968964;28;20076;-63
2021/05/16 00:08:05;;;;;;;4.22;1.67;;;;;;;2.85;65.92;94179.66;4974432;28;20103;-63
2021/05/16 00:10:31;;;;;;;3.80;1.55;;;;;;;2.38;67.51;94180.28;4972469;28;20170;-63
2021/05/16 00:12:57;;;;;;;2.75;1.67;;;;;;;2.92;65.72;94176.16;4972897;28;20079;-63
2021/05/16 00:15:23;;;;;;;6.45;1.90;;;;;;;2.90;66.18;94172.06;4973541;28;20164;-63
2021/05/16 00:17:48;;;;;;;3.67;1.95;;;;;;;2.70;66.69;94171.66;4975937;28;20099;-63
2021/05/16 00:20:16;;;;;;;3.47;1.55;;;;;;;2.38;68.02;94185.56;4972776;28;20111;-63
2021/05/16 00:22:42;;;;;;;3.20;1.98;;;;;;;2.56;68.04;94174.00;4970279;28;20567;-62
2021/05/16 00:25:12;;;;;;;4.00;1.50;;;;;;;2.82;65.49;94180.84;4969474;28;20075;-62
2021/05/16 00:27:37;;;;;;;5.75;2.03;;;;;;;1.98;69.34;94176.72;4971409;28;20122;-62
2021/05/16 00:30:08;;;;;;;6.50;1.92;;;;;;;2.00;68.43;94175.56;4973134;28;20072;-62
2021/05/16 00:32:33;;;;;;;3.40;1.73;;;;;;;3.00;65.62;94164.78;4968263;28;20127;-63
2021/05/16 00:34:59;;;;;;;3.78;1.95;;;;;;;2.45;66.81;94169.94;4966059;28;20242;-63
2021/05/16 00:37:24;;;;;;;4.10;1.90;;;;;;;2.56;66.99;94168.75;4972895;28;20129;-63
2021/05/16 00:40:29;;;;;;;4.43;1.67;;;;;;;3.84;65.83;94173.56;5072857;27;20453;-62
2021/05/16 00:42:55;;;;;;;4.20;1.67;;;;;;;4.11;65.09;94157.50;5060548;28;20124;-63
2021/05/16 00:45:21;;;;;;;4.57;1.90;;;;;;;4.68;63.29;94150.16;5057088;28;20125;-63
2021/05/16 00:48:11;;;;;;;6.30;2.20;;;;;;;3.84;65.41;94163.03;5062786;28;20493;-62
2021/05/16 00:50:42;;;;;;;4.43;2.08;;;;;;;3.30;69.09;94172.38;5059072;28;20077;-62
2021/05/16 00:53:08;;;;;;;4.65;1.83;;;;;;;4.59;63.95;94154.69;5059657;28;20803;-62
2021/05/16 00:55:34;;;;;;;4.40;1.73;;;;;;;4.44;64.35;94163.38;5065536;28;20117;-68
2021/05/16 00:57:59;;;;;;;3.20;1.50;;;;;;;4.56;62.86;94160.34;5060261;28;20065;-63
2021/05/16 01:00:27;;;;;;;8.45;2.20;;;;;;;3.90;64.75;94162.34;5060104;28;20113;-63
2021/05/16 01:02:53;;;;;;;8.13;2.75;;;;;;;4.00;64.54;94159.50;5058016;28;20125;-62
2021/05/16 01:05:18;;;;;;;6.15;2.08;;;;;;;3.79;65.90;94160.94;5059817;28;20539;-63
2021/05/16 01:07:45;;;;;;;6.63;2.38;;;;;;;3.80;65.83;94153.84;5059226;28;20629;-63
2021/05/16 01:10:11;;;;;;;7.38;1.98;;;;;;;4.39;64.08;94155.16;5072998;28;20252;-63
2021/05/16 01:12:45;;;;;;;5.43;2.00;;;;;;;4.48;63.84;94157.72;5059003;28;20105;-63
2021/05/16 01:15:14;;;;;;;6.38;2.15;;;;;;;4.33;63.53;94161.94;5057221;28;20097;-62
2021/05/16 01:17:39;;;;;;;7.15;2.67;;;;;;;3.95;64.68;94164.47;5056782;28;20246;-63
2021/05/16 01:20:10;;;;;;;8.27;2.63;;;;;;;3.98;65.13;94165.94;5057358;28;20097;-62
2021/05/16 01:22:36;;;;;;;7.38;2.20;;;;;;;4.54;63.50;94167.59;5036745;28;20155;-63
2021/05/16 01:25:02;;;;;;;11.95;2.60;;;;;;;4.26;64.45;94161.03;5058586;28;20645;-63
2021/05/16 01:27:28;;;;;;;6.93;2.30;;;;;;;3.92;65.13;94167.47;5062783;28;20097;-62
2021/05/16 01:29:53;;;;;;;9.57;2.33;;;;;;;3.19;68.08;94165.69;5056443;28;20143;-63
2021/05/16 01:32:21;;;;;;;5.43;2.30;;;;;;;3.28;67.02;94175.22;5057199;28;20597;-63
2021/05/16 01:34:47;;;;;;;8.25;2.80;;;;;;;3.50;65.97;94177.34;5055468;28;20109;-63
2021/05/16 01:37:13;;;;;;;4.00;1.88;;;;;;;4.10;64.60;94175.09;5061968;28;20069;-62
2021/05/16 01:39:39;;;;;;;9.68;2.70;;;;;;;3.34;66.82;94165.00;5056834;28;20113;-63
2021/05/16 01:42:05;;;;;;;5.38;2.33;;;;;;;3.64;66.52;94167.91;5058459;28;20073;-63
2021/05/16 01:44:33;;;;;;;7.00;2.30;;;;;;;4.15;65.45;94167.50;5058345;28;20097;-63
2021/05/16 01:47:02;;;;;;;8.93;3.00;;;;;;;3.70;66.15;94167.22;5053992;28;20116;-63
2021/05/16 01:49:29;;;;;;;10.93;2.83;;;;;;;3.93;65.23;94175.19;5058792;28;20077;-63
2021/05/16 01:51:54;;;;;;;10.93;3.13;;;;;;;3.88;64.79;94172.22;5045047;28;20097;-63
2021/05/16 01:54:20;;;;;;;6.18;2.15;;;;;;;4.29;64.49;94171.19;5045602;28;20085;-63
2021/05/16 01:56:45;;;;;;;6.07;2.22;;;;;;;4.38;64.26;94169.34;5025378;28;20101;-63
2021/05/16 01:59:10;;;;;;;6.68;2.60;;;;;;;4.07;64.91;94173.63;5036401;28;20597;-63
2021/05/16 02:01:36;;;;;;;8.98;2.55;;;;;;;4.38;64.24;94169.34;5024896;28;20074;-63
2021/05/16 02:04:01;;;;;;;9.57;3.03;;;;;;;4.61;62.62;94163.25;5043908;28;20629;-63
2021/05/16 02:06:27;;;;;;;8.90;1.98;;;;;;;5.17;61.81;94177.97;5044734;28;20159;-63
2021/05/16 02:08:52;;;;;;;9.52;2.28;;;;;;;5.34;60.28;94173.34;5043336;28;20097;-63
2021/05/16 02:11:18;;;;;;;9.40;2.92;;;;;;;5.18;60.61;94179.63;5049451;28;20097;-63
2021/05/16 02:13:43;;;;;;;10.07;2.45;;;;;;;5.37;60.80;94172.16;5048572;28;20123;-63
2021/05/16 02:16:10;;;;;;;8.80;2.75;;;;;;;5.03;61.30;94170.84;5040940;28;20109;-63
2021/05/16 02:18:35;;;;;;;5.30;2.00;;;;;;;5.45;60.35;94168.63;5036522;28;20220;-63
2021/05/16 02:21:01;;;;;;;6.95;2.50;;;;;;;5.60;60.32;94161.53;5042796;28;20147;-63
2021/05/16 02:23:27;;;;;;;6.68;2.42;;;;;;;5.55;60.19;94163.09;5043715;28;20582;-63
2021/05/16 02:25:52;;;;;;;7.95;2.55;;;;;;;5.86;59.22;94165.50;5043463;28;20105;-63
2021/05/16 02:28:18;;;;;;;4.70;1.88;;;;;;;5.60;59.52;94161.53;5036001;28;20121;-63
2021/05/16 02:30:44;;;;;;;6.88;2.40;;;;;;;5.76;58.81;94164.16;5039687;28;20082;-63
2021/05/16 02:33:10;;;;;;;7.25;2.53;;;;;;;5.71;58.73;94159.41;5044930;28;20605;-63
2021/05/16 02:35:35;;;;;;;3.42;2.00;;;;;;;6.30;58.09;94151.59;5043696;28;20469;-63
2021/05/16 02:38:00;;;;;;;6.18;2.25;;;;;;;6.77;56.60;94149.44;5043969;28;20089;-63
2021/05/16 02:40:26;;;;;;;9.25;2.50;;;;;;;6.59;57.58;94152.50;5042767;28;20483;-63
2021/05/16 02:42:51;;;;;;;4.97;2.10;;;;;;;6.83;55.91;94153.94;5039555;28;20101;-63
2021/05/16 02:45:17;;;;;;;6.90;2.40;;;;;;;6.64;56.38;94156.22;5042605;28;20457;-63
2021/05/16 02:47:42;;;;;;;6.63;2.30;;;;;;;6.42;56.24;94151.91;5042578;28;20105;-63
2021/05/16 02:50:09;;;;;;;9.25;2.72;;;;;;;5.20;60.46;94171.50;5045052;28;20569;-63
2021/05/16 02:52:35;;;;;;;6.43;2.33;;;;;;;6.64;56.35;94158.06;5044489;28;20102;-63
2021/05/16 02:55:00;;;;;;;3.78;2.20;;;;;;;6.85;55.96;94162.53;5044283;28;20123;-63
2021/05/16 02:57:26;;;;;;;6.65;2.55;;;;;;;5.82;58.36;94174.00;5033944;28;20517;-63
2021/05/16 02:59:51;;;;;;;5.20;2.70;;;;;;;5.18;59.72;94166.44;5044388;28;20121;-63
2021/05/16 03:02:17;;;;;;;9.20;2.83;;;;;;;3.78;65.50;94166.38;5041822;28;20103;-63
2021/05/16 03:04:43;;;;;;;7.80;2.33;;;;;;;4.35;64.32;94159.13;5044543;28;20105;-63
2021/05/16 03:07:08;;;;;;;8.45;3.28;;;;;;;4.48;64.00;94157.72;5038239;28;20105;-63
2021/05/16 03:09:35;;;;;;;5.35;2.35;;;;;;;4.42;63.95;94169.81;5039385;28;20078;-63
2021/05/16 03:12:04;;;;;;;8.73;2.72;;;;;;;4.54;63.23;94163.13;5041320;28;20146;-63
2021/05/16 03:14:29;;;;;;;11.85;3.22;;;;;;;3.71;66.20;94165.41;5021009;28;20396;-63
2021/05/16 03:16:55;;;;;;;7.43;2.83;;;;;;;5.12;62.11;94158.41;5041559;28;20135;-63
2021/05/16 03:19:20;;;;;;;11.00;4.18;;;;;;;4.82;62.77;94159.94;5042917;28;20110;-63
2021/05/16 03:21:46;;;;;;;6.10;2.50;;;;;;;5.00;61.70;94160.63;5035344;28;20155;-63
2021/05/16 03:24:11;;;;;;;5.10;2.53;;;;;;;5.07;61.68;94154.47;5036359;28;20602;-63
2021/05/16 03:26:37;;;;;;;7.13;2.92;;;;;;;5.11;61.02;94160.25;5036204;28;20116;-63
2021/05/16 03:29:04;;;;;;;4.22;2.38;;;;;;;5.24;61.55;94156.16;5043176;28;20074;-63
2021/05/16 03:31:30;;;;;;;4.10;2.20;;;;;;;5.55;60.49;94157.81;5040493;28;20589;-63
2021/05/16 03:33:55;;;;;;;4.35;2.58;;;;;;;5.86;59.00;94152.31;5043798;28;20081;-63
2021/05/16 03:36:20;;;;;;;9.30;3.08;;;;;;;3.53;65.22;94159.38;5043793;28;20167;-63
2021/05/16 03:38:46;;;;;;;7.13;2.38;;;;;;;5.35;61.12;94155.72;5047354;28;20643;-63
2021/05/16 03:41:11;;;;;;;7.70;3.13;;;;;;;5.83;58.27;94154.50;5043257;28;20097;-63
2021/05/16 03:43:37;;;;;;;4.15;2.20;;;;;;;6.02;58.67;94150.47;5042343;28;20219;-63
2021/05/16 03:46:02;;;;;;;4.88;2.40;;;;;;;5.57;59.16;94158.44;5040032;28;20140;-63
2021/05/16 03:48:27;;;;;;;6.45;2.53;;;;;;;5.72;59.41;94148.69;5044870;28;20093;-63
2021/05/16 03:50:53;;;;;;;11.15;3.20;;;;;;;5.34;60.03;94156.72;5044405;28;20101;-63
2021/05/16 03:53:19;;;;;;;8.43;2.67;;;;;;;5.63;59.38;94165.63;5043012;28;20613;-63
2021/05/16 03:55:44;;;;;;;5.25;2.65;;;;;;;5.14;61.68;94165.13;5042889;28;20101;-63
2021/05/16 03:58:09;;;;;;;8.32;3.13;;;;;;;4.02;63.29;94175.94;5044542;28;20497;-63
2021/05/16 04:00:35;;;;;;;4.15;2.40;;;;;;;5.44;60.44;94165.16;5046148;28;20178;-63
2021/05/16 04:03:00;;;;;;;7.43;2.70;;;;;;;6.23;58.06;94156.81;5049972;28;20509;-63
2021/05/16 04:05:26;;;;;;;6.63;2.92;;;;;;;5.71;59.14;94167.34;5045765;28;20897;-63
2021/05/16 04:07:51;;;;;;;9.27;2.90;;;;;;;5.89;58.75;94169.63;5045967;28;20162;-63
2021/05/16 04:10:17;;;;;;;9.52;3.13;;;;;;;5.19;61.16;94175.97;5047602;28;20567;-63
2021/05/16 04:12:42;;;;;;;8.48;3.00;;;;;;;5.25;61.33;94166.53;5047533;28;20174;-63
2021/05/16 04:15:08;;;;;;;5.82;2.88;;;;;;;6.12;58.14;94163.38;5044215;28;20485;-63
2021/05/16 04:17:33;;;;;;;6.70;2.95;;;;;;;6.20;57.80;94171.22;5046238;28;20906;-63
2021/05/16 04:19:59;;;;;;;8.32;2.50;;;;;;;6.36;57.10;94172.00;5047280;28;20117;-63
2021/05/16 04:22:24;;;;;;;7.20;2.83;;;;;;;6.51;56.50;94161.38;5046175;28;20172;-63
2021/05/16 04:24:52;;;;;;;6.28;2.72;;;;;;;6.07;57.61;94165.75;5042497;28;20135;-63
2021/05/16 04:27:17;;;;;;;6.53;2.97;;;;;;;5.77;57.73;94168.44;5028060;28;20456;-63
2021/05/16 04:29:44;;;;;;;7.13;2.75;;;;;;;6.21;57.18;94164.91;5047222;28;20069;-63
2021/05/16 04:32:10;;;;;;;11.20;3.88;;;;;;;4.99;61.93;94166.91;5045364;28;20123;-63
2021/05/16 04:34:35;;;;;;;6.25;2.70;;;;;;;6.36;57.03;94156.94;5046899;28;20089;-63
2021/05/16 04:37:01;;;;;;;12.80;3.47;;;;;;;6.11;57.23;94167.84;5045948;28;20523;-63
2021/05/16 04:39:26;;;;;;;14.45;4.20;;;;;;;6.83;56.58;94161.09;5047274;28;20186;-63
2021/05/16 04:41:52;;;;;;;7.00;2.70;;;;;;;6.95;55.67;94167.50;5045978;28;20085;-63
2021/05/16 04:44:17;;;;;;;8.82;2.67;;;;;;;6.96;56.13;94174.41;5045805;28;20105;-63
2021/05/16 04:46:43;;;;;;;7.90;3.05;;;;;;;6.01;58.61;94162.03;5043440;28;20108;-63
2021/05/16 04:49:08;;;;;;;4.75;2.60;;;;;;;6.91;56.00;94166.25;5047814;28;20562;-63
2021/05/16 04:51:34;;;;;;;7.85;2.97;;;;;;;6.75;56.51;94173.44;5047430;28;20158;-63
2021/05/16 04:54:00;;;;;;;10.13;3.50;;;;;;;7.17;55.24;94164.00;5041053;28;20409;-63
2021/05/16 04:56:26;;;;;;;6.88;3.20;;;;;;;6.89;55.35;94168.25;5047014;28;20101;-63
2021/05/16 04:58:52;;;;;;;6.88;2.80;;;;;;;6.92;55.29;94159.94;5041176;28;20216;-63
2021/05/16 05:01:17;;;;;;;11.45;3.40;;;;;;;5.59;58.86;94174.91;5047466;28;20081;-63
2021/05/16 05:03:43;;;;;;;8.35;3.53;;;;;;;4.89;61.31;94169.78;5041818;28;20515;-63
2021/05/16 05:06:08;;;;;;;7.20;2.92;;;;;;;5.94;59.49;94166.41;5044996;28;20464;-63
2021/05/16 05:08:36;;;;;;;15.25;3.45;;;;;;;5.60;59.42;94173.91;5043546;28;20449;-63
2021/05/16 05:11:01;;;;;;;8.93;4.07;;;;;;;6.16;58.99;94164.66;5045870;28;20094;-63
2021/05/16 05:13:26;;;;;;;9.07;3.38;;;;;;;4.96;60.89;94181.25;5041135;28;20086;-63
2021/05/16 05:15:52;;;;;;;8.85;3.35;;;;;;;5.64;59.72;94177.81;5046454;28;20105;-63
2021/05/16 05:18:18;;;;;;;8.15;2.75;;;;;;;6.84;56.60;94160.06;5041968;28;20154;-63
2021/05/16 05:20:44;;;;;;;8.52;3.00;;;;;;;6.73;56.41;94164.84;5042323;28;20697;-63
2021/05/16 05:23:10;;;;;;;9.35;2.80;;;;;;;6.67;56.58;94164.78;5046580;28;20124;-63
2021/05/16 05:25:35;;;;;;;5.60;2.83;;;;;;;7.08;55.76;94163.31;5045295;28;20105;-63
2021/05/16 05:28:01;;;;;;;10.40;3.13;;;;;;;6.50;57.12;94171.13;5050349;28;20120;-63
2021/05/16 05:30:26;;;;;;;8.65;2.70;;;;;;;6.72;56.47;94167.69;5045412;28;20070;-63
2021/05/16 05:32:52;;;;;;;7.15;2.63;;;;;;;7.41;54.34;94157.41;5051007;28;20081;-63
2021/05/16 05:35:17;;;;;;;7.07;2.40;;;;;;;6.65;57.18;94159.69;5045140;28;20105;-63
2021/05/16 05:37:43;;;;;;;9.50;2.90;;;;;;;7.32;55.29;94156.78;5049552;28;20439;-63
2021/05/16 05:40:09;;;;;;;7.53;2.90;;;;;;;7.50;53.79;94164.22;5047272;28;20124;-63
2021/05/16 05:42:34;;;;;;;13.57;3.05;;;;;;;7.72;53.73;94152.72;5050275;28;20239;-63
2021/05/16 05:45:00;;;;;;;9.73;2.78;;;;;;;8.06;52.98;94151.06;5044550;28;20077;-63
2021/05/16 05:47:25;;;;;;;4.07;2.20;;;;;;;7.17;56.09;94159.50;5047028;28;20423;-63
2021/05/16 05:49:54;;;;;;;6.13;2.65;;;;;;;7.58;54.89;94165.09;5049956;28;20081;-63
2021/05/16 05:52:19;;;;;;;9.68;3.13;;;;;;;6.53;58.20;94171.78;5043430;28;20144;-63
2021/05/16 05:54:45;;;;;;;8.48;2.97;;;;;;;5.38;60.74;94173.81;5042732;28;20101;-63
2021/05/16 05:57:10;;;;;;;7.93;2.80;;;;;;;6.63;56.16;94169.63;5050477;28;20088;-63
2021/05/16 05:59:36;;;;;;;5.57;2.30;;;;;;;7.31;55.74;94170.19;5054378;28;20337;-63
2021/05/16 06:02:03;;;;;;;7.75;2.72;;;;;;;7.75;54.79;94171.69;5050285;28;20085;-63
2021/05/16 06:04:28;;;;;;;8.55;2.85;;;;;;;6.49;56.70;94169.50;5048451;28;20112;-63
2021/05/16 06:06:54;;;;;;;9.45;2.85;;;;;;;7.74;53.69;94170.06;5050069;28;20134;-63
2021/05/16 06:09:19;;;;;;;7.68;2.75;;;;;;;7.83;54.32;94161.97;5047285;28;20073;-63
2021/05/16 06:11:45;;;;;;;5.30;2.58;;;;;;;8.01;52.79;94164.09;5050063;28;20493;-63
2021/05/16 06:14:10;;;;;;;10.25;2.92;;;;;;;8.02;53.63;94157.75;5045448;28;20082;-63
2021/05/16 06:16:36;;;;;;;9.05;2.83;;;;;;;7.24;56.13;94165.66;5049794;28;20238;-63
2021/05/16 06:19:01;;;;;;;8.68;3.78;;;;;;;8.42;52.85;94155.25;5046076;28;20114;-63
2021/05/16 06:21:27;;;;;;;9.05;3.72;;;;;;;8.23;53.13;94159.47;5050357;28;20096;-63
2021/05/16 06:24:10;;;;;;;8.60;2.97;;;;;;;8.65;52.00;94158.56;5046184;28;20485;-63
2021/05/16 06:26:37;;;;;;;6.72;2.45;;;;;;;9.01;52.14;94148.63;5048727;28;20530;-63
2021/05/16 06:29:05;;;;;;;7.40;2.60;;;;;;;9.69;49.76;94157.34;5044541;28;20578;-63
2021/05/16 06:31:31;;;;;;;6.57;2.10;;;;;;;10.30;48.43;94154.50;5048295;28;20148;-63
2021/05/16 06:33:56;;;;;;;12.52;3.88;;;;;;;8.95;51.80;94161.69;5047949;28;20086;-63
2021/05/16 06:36:22;;;;;;;7.20;2.30;;;;;;;10.24;48.83;94156.16;5048211;28;20147;-64
2021/05/16 06:38:48;;;;;;;7.32;2.53;;;;;;;9.15;50.53;94158.22;5048334;28;20115;-63
2021/05/16 06:41:13;;;;;;;7.65;2.40;;;;;;;8.69;50.96;94165.09;5049569;28;20151;-63
2021/05/16 06:43:39;;;;;;;5.75;2.42;;;;;;;9.60;50.14;94164.72;5048473;28;20094;-63
2021/05/16 06:46:04;;;;;;;7.65;3.40;;;;;;;9.66;49.62;94160.41;5042655;28;20088;-63
2021/05/16 06:48:30;;;;;;;7.57;2.70;;;;;;;8.28;52.25;94164.19;5042705;28;20433;-64
2021/05/16 06:50:55;;;;;;;7.78;2.40;;;;;;;8.81;51.68;94158.16;5049548;28;20115;-63
2021/05/16 06:53:21;;;;;;;8.95;2.83;;;;;;;8.11;52.51;94169.84;5046287;28;20078;-63
2021/05/16 06:55:46;;;;;;;5.05;2.10;;;;;;;9.69;50.07;94158.16;5047138;28;20184;-64
2021/05/16 06:58:12;;;;;;;6.80;2.35;;;;;;;8.54;52.65;94160.78;5047364;28;20074;-63
2021/05/16 07:00:37;;;;;;;8.95;2.15;;;;;;;9.78;49.94;94160.56;5047505;28;20482;-63
2021/05/16 07:03:03;;;;;;;5.72;2.05;;;;;;;9.97;49.44;94158.91;5046847;28;20163;-63
2021/05/16 07:05:28;;;;;;;6.85;2.40;;;;;;;8.47;51.88;94156.50;5049438;28;20081;-64
2021/05/16 07:07:54;;;;;;;8.00;2.20;;;;;;;9.36;50.70;94163.53;5047227;28;20104;-63
2021/05/16 07:10:19;;;;;;;3.42;1.80;;;;;;;9.78;49.95;94166.72;5049371;28;20471;-63
2021/05/16 07:12:44;;;;;;;5.82;2.05;;;;;;;8.60;52.94;94168.97;5044822;28;20159;-64
2021/05/16 07:15:13;;;;;;;6.70;2.60;;;;;;;8.85;52.08;94171.03;5045923;28;20496;-64
2021/05/16 07:17:38;;;;;;;;;;;;;;;5.35;56.45;94182.09;5048034;28;20093;-65
2021/05/16 07:20:04;;;;;;;3.70;1.40;;;;;;;7.52;52.33;94172.78;5048664;28;20001;-63
2021/05/16 07:22:30;;;;;;;2.92;1.50;;;;;;;5.22;56.98;94191.47;5048556;28;20609;-64
2021/05/16 07:24:55;;;;;;;5.00;1.58;;;;;;;5.75;58.17;94179.22;5048759;28;20109;-63
2021/05/16 07:27:21;;;;;;;5.07;1.80;;;;;;;5.31;59.17;94175.53;5046427;28;20117;-64
2021/05/16 07:29:48;;;;;;;4.15;1.30;;;;;;;5.87;58.68;94184.81;5046572;28;20112;-64
2021/05/16 07:32:14;;;;;;;3.95;1.50;;;;;;;6.05;59.01;94191.56;5048691;28;20290;-63
2021/05/16 07:34:39;;;;;;;2.97;1.13;;;;;;;6.21;59.05;94164.91;5044697;28;20548;-63
2021/05/16 07:37:04;;;;;;;6.22;1.52;;;;;;;5.82;60.07;94174.81;5049035;28;20077;-63
2021/05/16 07:39:30;;;;;;;1.83;1.00;;;;;;;6.58;57.84;94177.31;5046380;28;20113;-63
2021/05/16 07:41:55;;;;;;;4.55;1.50;;;;;;;5.95;59.81;94186.56;5049288;28;20606;-64
2021/05/16 07:44:21;;;;;;;5.63;1.50;;;;;;;6.50;57.51;94180.91;5046877;28;20097;-64
2021/05/16 07:46:46;;;;;;;4.82;1.50;;;;;;;6.16;56.54;94184.97;5044628;28;20077;-64
2021/05/16 07:49:12;;;;;;;2.70;1.38;;;;;;;6.16;57.69;94182.34;5047629;28;20070;-64
2021/05/16 07:51:37;;;;;;;5.82;1.52;;;;;;;6.69;55.32;94178.63;5048423;28;20485;-64
2021/05/16 07:54:03;;;;;;;1.27;1.00;;;;;;;6.88;55.94;94198.34;5044956;28;20089;-64
2021/05/16 07:56:28;;;;;;;5.70;1.58;;;;;;;6.73;56.39;94201.88;5046330;28;20192;-64
2021/05/16 07:58:54;;;;;;;3.17;1.42;;;;;;;6.41;57.73;94196.03;5046269;28;20116;-64
2021/05/16 08:01:19;;;;;;;3.17;1.50;;;;;;;6.30;56.63;94199.16;5040666;28;20101;-64
2021/05/16 08:03:46;;;;;;;2.67;1.00;;;;;;;6.64;55.88;94187.94;5046953;28;20147;-64
2021/05/16 08:06:11;;;;;;;3.90;1.00;;;;;;;6.82;55.88;94185.88;5048792;28;20160;-64
2021/05/16 08:08:37;;;;;;;3.72;1.10;;;;;;;6.92;55.75;94183.75;5045831;28;20101;-64
2021/05/16 08:11:03;;;;;;;1.23;0.90;;;;;;;7.08;56.21;94171.25;5043938;28;20220;-64
2021/05/16 08:13:28;;;;;;;3.38;1.90;;;;;;;7.30;56.20;94157.94;5048299;28;20088;-64
2021/05/16 08:15:53;;;;;;;1.58;0.80;;;;;;;7.66;56.40;94146.38;5039836;28;20101;-64
2021/05/16 08:18:19;;;;;;;2.33;0.85;;;;;;;8.08;55.23;94137.59;5046689;28;20112;-64
2021/05/16 08:20:44;;;;;;;1.77;0.88;;;;;;;8.25;53.29;94154.81;5046413;28;20113;-64
2021/05/16 08:23:10;;;;;;;2.67;1.00;;;;;;;8.09;53.13;94171.88;5047974;28;20117;-64
2021/05/16 08:25:38;;;;;;;1.50;1.08;;;;;;;8.60;52.00;94163.66;5047987;28;20074;-64
2021/05/16 08:28:04;;;;;;;1.67;0.75;;;;;;;8.76;50.28;94165.09;5045163;28;20109;-64
2021/05/16 08:30:29;;;;;;;1.95;0.90;;;;;;;8.99;50.60;94156.81;5046711;28;20077;-64
2021/05/16 08:32:55;;;;;;;1.23;0.95;;;;;;;9.01;49.27;94162.72;5042977;28;20516;-64
2021/05/16 08:35:21;;;;;;;1.27;0.80;;;;;;;8.46;50.01;94166.28;5047462;28;20113;-64
2021/05/16 08:37:46;;;;;;;2.55;1.02;;;;;;;7.76;52.36;94167.22;5048003;28;20086;-64
2021/05/16 08:40:12;;;;;;;1.48;0.88;;;;;;;7.73;52.53;94164.94;5047514;28;20224;-64
2021/05/16 08:42:37;;;;;;;1.40;0.85;;;;;;;8.27;51.88;94171.31;5044488;28;20074;-64
2021/05/16 08:45:08;;;;;;;2.63;1.15;;;;;;;8.03;52.39;94162.88;5045997;28;20561;-64
2021/05/16 08:47:33;;;;;;;3.33;1.10;;;;;;;8.90;51.51;94168.59;5045886;28;20109;-64
2021/05/16 08:49:59;;;;;;;2.20;1.00;;;;;;;8.76;51.30;94171.25;5047858;28;20467;-64
2021/05/16 08:52:24;;;;;;;0.65;0.60;;;;;;;7.88;54.19;94172.78;5043536;28;20098;-63
2021/05/16 08:54:53;;;;;;;2.63;0.80;;;;;;;7.89;55.69;94166.50;5045294;28;20553;-63
2021/05/16 08:57:19;;;;;;;1.38;0.68;;;;;;;7.54;55.90;94165.47;5046379;28;20084;-63
2021/05/16 09:00:16;;;;;;;3.10;0.90;;;;;;;8.85;55.03;94158.59;5047004;28;20109;-64
2021/05/16 09:03:02;;;;;;;0.63;0.60;;;;;;;8.34;54.29;94162.56;5039681;28;20073;-64
2021/05/16 09:05:38;;;;;;;1.67;0.82;;;;;;;7.93;57.34;94162.44;5052043;28;20090;-63
2021/05/16 09:08:06;;;;;;;1.75;1.08;;;;;;;7.53;55.39;94161.19;5048469;28;20112;-63
2021/05/16 09:10:31;;;;;;;2.28;1.23;;;;;;;7.69;56.29;94146.00;5050896;28;20078;-63
2021/05/16 09:13:07;;;;;;;2.67;0.70;;;;;;;8.63;54.53;94155.28;5050110;28;20139;-63
2021/05/16 09:15:33;;;;;;;3.28;1.08;;;;;;;8.19;55.83;94144.97;5047902;28;20109;-64
2021/05/16 09:17:58;;;;;;;0.77;0.60;;;;;;;8.10;56.66;94170.03;5049172;28;20641;-63
2021/05/16 09:20:24;;;;;;;1.00;0.68;;;;;;;8.05;57.35;94158.19;5051078;28;20125;-63
2021/05/16 09:22:51;;;;;;;2.35;1.10;;;;;;;7.99;55.05;94177.53;5050247;28;20078;-63
2021/05/16 09:25:22;;;;;;;2.10;1.00;;;;;;;7.87;55.00;94161.41;5051742;28;20200;-64
2021/05/16 09:28:05;;;;;;;3.67;1.00;;;;;;;8.03;55.72;94162.06;5048661;28;20117;-64
2021/05/16 09:30:32;;;;;;;2.80;1.13;;;;;;;8.13;54.51;94177.59;5042525;28;20077;-64
2021/05/16 09:33:06;;;;;;;3.25;1.25;;;;;;;7.71;55.14;94166.97;5058841;28;20078;-63
2021/05/16 09:35:42;;;;;;;1.73;0.82;;;;;;;7.97;56.37;94165.50;5046095;28;20117;-64
2021/05/16 09:38:12;;;;;;;3.13;1.30;;;;;;;7.43;56.25;94160.72;5049994;28;20535;-64
2021/05/16 09:40:40;;;;;;;5.50;1.20;;;;;;;7.87;55.05;94163.22;5048533;28;20151;-63
2021/05/16 09:43:24;;;;;;;1.52;0.93;;;;;;;7.06;55.10;94179.38;5049281;28;20163;-63
2021/05/16 09:45:56;;;;;;;4.80;1.52;;;;;;;6.67;55.31;94157.69;5047966;28;20069;-64
2021/05/16 09:48:30;;;;;;;4.07;1.45;;;;;;;7.25;54.76;94169.94;5050001;28;20478;-63
2021/05/16 09:51:08;;;;;;;1.33;0.88;;;;;;;8.71;51.97;94167.56;5045831;28;20109;-63
2021/05/16 09:53:54;;;;;;;2.22;1.25;;;;;;;8.02;53.87;94169.19;5035724;28;20105;-63
2021/05/16 09:56:21;;;;;;;1.95;1.10;;;;;;;8.54;51.83;94152.03;5045176;28;20105;-63
2021/05/16 09:58:47;;;;;;;2.70;1.10;;;;;;;9.01;50.63;94156.59;5050291;28;20085;-64
2021/05/16 10:01:14;;;;;;;2.83;1.10;;;;;;;8.87;53.21;94158.41;5048077;28;20416;-63
2021/05/16 10:03:39;;;;;;;6.85;1.30;;;;;;;9.69;49.68;94154.69;5043774;28;20110;-64
2021/05/16 10:06:05;;;;;;;1.88;1.00;;;;;;;8.98;50.59;94162.31;5046706;28;20066;-63
2021/05/16 10:08:31;;;;;;;4.18;1.30;;;;;;;9.07;47.94;94153.94;5050135;28;20102;-63
2021/05/16 10:10:56;;;;;;;2.70;1.05;;;;;;;8.93;52.16;94160.22;5047058;28;20469;-63
2021/05/16 10:13:22;;;;;;;1.73;0.80;;;;;;;8.20;53.19;94167.84;5050226;28;20109;-63
2021/05/16 10:15:47;;;;;;;2.40;1.20;;;;;;;8.18;54.05;94169.88;5045468;28;20605;-63
2021/05/16 10:18:13;;;;;;;1.13;0.98;;;;;;;7.48;55.79;94173.38;5049327;28;20497;-63
2021/05/16 10:20:40;;;;;;;3.47;1.08;;;;;;;7.46;56.04;94162.16;5048719;28;20489;-63
2021/05/16 10:23:06;;;;;;;1.88;1.00;;;;;;;8.14;55.27;94169.47;5045353;28;20184;-63
2021/05/16 10:25:38;;;;;;;2.55;1.00;;;;;;;8.25;56.24;94154.81;5050019;28;20081;-63
2021/05/16 10:28:04;;;;;;;3.15;1.10;;;;;;;8.91;54.27;94149.00;5046378;28;20120;-63
2021/05/16 10:30:29;;;;;;;2.22;1.23;;;;;;;9.25;54.85;94147.16;5049356;28;20070;-63
2021/05/16 10:32:55;;;;;;;2.20;1.23;;;;;;;9.45;52.46;94146.34;5050009;28;20144;-64
2021/05/16 10:35:21;;;;;;;3.33;1.38;;;;;;;8.91;53.40;94147.16;5047936;28;20592;-63
2021/05/16 10:37:47;;;;;;;3.30;1.10;;;;;;;9.00;53.05;94150.47;5049397;28;20490;-63
2021/05/16 10:40:13;;;;;;;1.95;0.98;;;;;;;9.08;53.77;94150.25;5032644;28;20538;-63
2021/05/16 10:42:43;;;;;;;4.07;1.58;;;;;;;8.73;52.55;94145.09;5044515;28;20077;-63
2021/05/16 10:45:14;;;;;;;1.92;1.35;;;;;;;9.16;53.31;94140.44;5043745;28;20082;-63
2021/05/16 10:47:43;;;;;;;5.25;1.58;;;;;;;9.13;52.00;94139.03;5041988;28;20117;-63
2021/05/16 10:50:13;;;;;;;2.67;1.15;;;;;;;8.90;51.72;94139.38;5033307;28;20073;-63
2021/05/16 10:52:38;;;;;;;2.97;1.15;;;;;;;8.81;53.11;94150.22;5043851;28;20109;-63
2021/05/16 10:55:06;;;;;;;3.13;1.02;;;;;;;8.87;50.19;94139.81;5042602;28;20525;-63
2021/05/16 10:57:35;;;;;;;3.05;0.98;;;;;;;9.24;50.65;94142.88;5039062;28;20631;-63
2021/05/16 11:00:21;;;;;;;2.17;1.10;;;;;;;8.94;50.78;94145.94;5043793;28;20581;-63
2021/05/16 11:03:00;;;;;;;4.20;1.20;;;;;;;8.72;48.43;94146.13;5033587;28;20093;-63
2021/05/16 11:05:40;;;;;;;;;;;;;;;7.28;52.13;94161.63;5044654;28;20081;-64
2021/05/16 11:08:09;;;;;;;2.60;1.15;;;;;;;6.11;56.16;94167.84;5039815;28;19992;-63
2021/05/16 11:10:38;;;;;;;2.53;1.17;;;;;;;6.05;59.14;94162.50;5044909;28;20069;-63
2021/05/16 11:13:12;;;;;;;2.40;1.20;;;;;;;6.41;58.57;94145.81;5041634;28;20423;-63
2021/05/16 11:15:51;;;;;;;4.00;1.08;;;;;;;6.79;59.02;94150.03;5044979;28;20105;-64
2021/05/16 11:18:18;;;;;;;;;;;;;;;7.06;59.73;94150.25;5037054;28;20177;-62
2021/05/16 11:20:43;;;;;;;3.97;1.10;;;;;;;7.02;58.28;94146.38;5039904;28;20019;-62
2021/05/16 11:23:09;;;;;;;5.60;1.35;;;;;;;7.34;55.22;94140.69;5041025;28;20105;-63
2021/05/16 11:25:35;;;;;;;3.88;1.10;;;;;;;7.88;55.94;94141.00;5037797;28;20089;-62
2021/05/16 11:28:09;;;;;;;2.35;0.90;;;;;;;8.30;56.50;94133.00;5036685;28;20102;-63
2021/05/16 11:30:35;;;;;;;3.33;1.30;;;;;;;7.90;58.44;94137.16;5034687;28;20188;-62
2021/05/16 11:33:00;;;;;;;3.42;0.98;;;;;;;7.74;57.11;94122.38;5042149;28;20136;-62
2021/05/16 11:35:26;;;;;;;3.58;0.90;;;;;;;9.22;54.57;94126.38;5039595;28;20101;-62
2021/05/16 11:37:55;;;;;;;2.13;1.08;;;;;;;9.69;51.47;94120.94;5039227;28;20077;-62
2021/05/16 11:40:29;;;;;;;3.22;1.17;;;;;;;10.28;49.96;94111.31;5037751;28;20113;-62